Islington, United Kingdom
Current Conditions -  °F | °C
As of 8:50 PM on Saturday 20 Dec 2014 (Local Time) from EGLC Reporting Station
Clear Clear  
Wind Chill: 41°   Ceiling: Unl
Heat Index: 46°   Visibility: 6mi
Dew Point: 37°   Wind: 10mph
Humidity: 71%   Direction: 250°WSW
Pressure: 30.42"   Gusts: NA
Location:  51.54°N, 0.1°W
Report Text: EGLC 202050Z AUTO 25009KT 9999 NCD 08/03 Q1030
Loading
Personal Weather Stations






























Interactive Weather Map New forecast layout! Learn more

10-Day Weather Forecast

Advertisements
Track Severe Weather on mobile